Audubon, Illinois
Current Conditions -  °F | °C
As of 9:35 AM on Saturday 27 Dec 2014 (Local Time) from KTAZ Reporting Station
Haze Haze  
Wind Chill:   Ceiling: 500
Heat Index:   Visibility: 3mi
Dew Point:   Wind: 12mph
Humidity: 93%   Direction: 200°SSW
Pressure: 30.1"   Gusts: NA
Location:  39.3183°N, 89.2952°W
Report Text: KTAZ 271535Z AUTO 20010KT 3SM BR BKN005 OVC013 08/07 A3010 RMK AO2
Loading
Personal Weather Stations






























Interactive Weather Map New forecast layout! Learn more

10-Day Weather Forecast

Advertisements
Track Severe Weather on mobile